createdAt,value
2023-05-01T00:00:07.552Z,10.99
2023-05-01T00:01:07.591Z,11.02
2023-05-01T00:02:07.674Z,11.01
2023-05-01T00:03:07.786Z,10.98
2023-05-01T00:04:08.033Z,10.95
2023-05-01T00:05:07.992Z,10.99
2023-05-01T00:06:08.047Z,10.95
2023-05-01T00:07:08.065Z,11.01
2023-05-01T00:08:08.149Z,11.01
2023-05-01T00:09:08.225Z,10.99
2023-05-01T00:10:08.330Z,11.01
2023-05-01T00:11:08.362Z,10.95
2023-05-01T00:12:08.454Z,10.98
2023-05-01T00:13:08.520Z,10.98
2023-05-01T00:14:08.603Z,10.94
2023-05-01T00:15:08.684Z,10.93
2023-05-01T00:16:08.790Z,10.91
2023-05-01T00:17:08.845Z,10.88
2023-05-01T00:18:08.970Z,10.87
2023-05-01T00:19:09.015Z,10.88
2023-05-01T00:20:09.125Z,10.88
2023-05-01T00:21:09.184Z,10.88
2023-05-01T00:22:09.267Z,10.88
2023-05-01T00:23:09.350Z,10.86
2023-05-01T00:24:09.442Z,10.80
2023-05-01T00:25:09.554Z,10.78
2023-05-01T00:26:09.604Z,10.75
2023-05-01T00:27:09.658Z,10.75
2023-05-01T00:28:09.774Z,10.76
2023-05-01T00:29:09.851Z,10.78
2023-05-01T00:30:10.094Z,10.78
2023-05-01T00:31:09.988Z,10.76
2023-05-01T00:32:10.213Z,10.75
2023-05-01T00:33:10.400Z,10.72
2023-05-01T00:34:10.225Z,10.70
2023-05-01T00:35:10.551Z,10.70
2023-05-01T00:36:10.376Z,10.66
2023-05-01T00:37:10.425Z,10.63
2023-05-01T00:38:10.511Z,10.58
2023-05-01T00:39:10.578Z,10.62
2023-05-01T00:40:10.690Z,10.62
2023-05-01T00:41:10.866Z,10.60
2023-05-01T00:42:10.844Z,10.58
2023-05-01T00:43:10.912Z,10.54
2023-05-01T00:44:11.003Z,10.54
2023-05-01T00:45:11.108Z,10.52
2023-05-01T00:46:11.256Z,10.49
2023-05-01T00:47:11.218Z,10.47
2023-05-01T00:48:11.435Z,10.44
2023-05-01T00:49:11.392Z,10.42
2023-05-01T00:50:11.468Z,10.39
2023-05-01T00:51:11.531Z,10.38
2023-05-01T00:52:11.617Z,10.36
2023-05-01T00:53:11.674Z,10.34
2023-05-01T00:54:11.773Z,10.34
2023-05-01T00:55:11.855Z,10.31
2023-05-01T00:56:11.923Z,10.31
2023-05-01T00:57:12.006Z,10.31
2023-05-01T00:58:12.270Z,10.28
2023-05-01T00:59:12.141Z,10.26
2023-05-01T01:00:12.228Z,10.24
2023-05-01T01:01:12.324Z,10.24
2023-05-01T01:02:12.410Z,10.24
2023-05-01T01:03:12.429Z,10.24
2023-05-01T01:04:12.511Z,10.24
2023-05-01T01:05:12.589Z,10.22
2023-05-01T01:06:12.759Z,10.20
2023-05-01T01:07:12.735Z,10.20
2023-05-01T01:08:12.805Z,10.22
2023-05-01T01:09:12.879Z,10.25
2023-05-01T01:10:12.979Z,10.29
2023-05-01T01:11:13.006Z,10.29
2023-05-01T01:12:13.093Z,10.29
2023-05-01T01:13:13.160Z,10.29
2023-05-01T01:14:13.235Z,10.26
2023-05-01T01:15:13.321Z,10.29
2023-05-01T01:16:13.450Z,10.29
2023-05-01T01:17:13.558Z,10.29
2023-05-01T01:18:13.573Z,10.28
2023-05-01T01:19:13.610Z,10.31
2023-05-01T01:20:13.852Z,10.31
2023-05-01T01:21:13.782Z,10.31
2023-05-01T01:22:13.865Z,10.32
2023-05-01T01:23:13.940Z,10.28
2023-05-01T01:24:13.997Z,10.26
2023-05-01T01:25:14.086Z,10.26
2023-05-01T01:26:14.169Z,10.22
2023-05-01T01:27:14.226Z,10.14
2023-05-01T01:28:14.304Z,10.04
2023-05-01T01:29:14.362Z,9.96
2023-05-01T01:30:14.481Z,9.98
2023-05-01T01:31:14.550Z,9.96
2023-05-01T01:32:14.642Z,10.01
2023-05-01T01:33:14.705Z,10.02
2023-05-01T01:34:14.793Z,10.06
2023-05-01T01:35:14.858Z,10.01
2023-05-01T01:36:14.921Z,9.89
2023-05-01T01:37:14.980Z,9.88
2023-05-01T01:38:15.060Z,9.93
2023-05-01T01:39:15.121Z,9.98
2023-05-01T01:40:15.216Z,10.02
2023-05-01T01:41:15.264Z,10.06
2023-05-01T01:42:15.364Z,10.09
2023-05-01T01:43:15.457Z,10.10
2023-05-01T01:44:15.538Z,10.14
2023-05-01T01:45:15.663Z,10.18
2023-05-01T01:46:15.701Z,10.20
2023-05-01T01:47:15.777Z,10.14
2023-05-01T01:48:15.857Z,10.11
2023-05-01T01:49:15.930Z,10.14
2023-05-01T01:50:16.022Z,10.16
2023-05-01T01:51:16.113Z,10.16
2023-05-01T01:52:16.169Z,10.14
2023-05-01T01:53:16.246Z,10.14
2023-05-01T01:54:16.346Z,10.11
2023-05-01T01:55:16.439Z,10.07
2023-05-01T01:56:16.508Z,10.07
2023-05-01T01:57:16.573Z,10.13
2023-05-01T01:58:16.657Z,10.10
2023-05-01T01:59:16.733Z,10.10
2023-05-01T02:00:16.848Z,10.09
2023-05-01T02:01:16.916Z,10.09
2023-05-01T02:02:16.990Z,10.11
2023-05-01T02:03:17.109Z,10.14
2023-05-01T02:04:17.280Z,10.16
2023-05-01T02:05:17.255Z,10.17
2023-05-01T02:06:17.434Z,10.20
2023-05-01T02:07:17.387Z,10.25
2023-05-01T02:08:17.472Z,10.28
2023-05-01T02:09:17.539Z,10.29
2023-05-01T02:10:17.637Z,10.34
2023-05-01T02:11:17.701Z,10.35
2023-05-01T02:12:17.781Z,10.36
2023-05-01T02:13:17.860Z,10.38
2023-05-01T02:14:17.933Z,10.39
2023-05-01T02:15:18.013Z,10.42
2023-05-01T02:16:18.142Z,10.42
2023-05-01T02:17:18.177Z,10.42
2023-05-01T02:18:18.220Z,10.42
2023-05-01T02:19:18.285Z,10.43
2023-05-01T02:20:18.370Z,10.44
2023-05-01T02:21:18.414Z,10.46
2023-05-01T02:22:18.489Z,10.44
2023-05-01T02:23:18.544Z,10.46
2023-05-01T02:24:18.650Z,10.46
2023-05-01T02:25:18.728Z,10.46
2023-05-01T02:26:18.798Z,10.44
2023-05-01T02:27:18.859Z,10.43
2023-05-01T02:28:18.947Z,10.42
2023-05-01T02:29:19.008Z,10.43
2023-05-01T02:30:19.113Z,10.39
2023-05-01T02:31:19.183Z,10.38
2023-05-01T02:32:19.319Z,10.38
2023-05-01T02:33:19.325Z,10.38
2023-05-01T02:34:19.442Z,10.34
2023-05-01T02:35:19.558Z,10.34
2023-05-01T02:36:19.600Z,10.35
2023-05-01T02:37:19.698Z,10.34
2023-05-01T02:38:19.809Z,10.32
2023-05-01T02:39:19.861Z,10.32
2023-05-01T02:40:19.957Z,10.35
2023-05-01T02:41:20.020Z,10.36
2023-05-01T02:42:20.135Z,10.36
2023-05-01T02:43:20.188Z,10.35
2023-05-01T02:44:20.264Z,10.38
2023-05-01T02:45:20.375Z,10.38
2023-05-01T02:46:20.513Z,10.36
2023-05-01T02:47:20.534Z,10.39
2023-05-01T02:48:20.550Z,10.39
2023-05-01T02:49:20.611Z,10.42
2023-05-01T02:50:20.696Z,10.42
2023-05-01T02:51:20.768Z,10.38
2023-05-01T02:52:20.830Z,10.39
2023-05-01T02:53:20.887Z,10.38
2023-05-01T02:54:20.965Z,10.36
2023-05-01T02:55:21.032Z,10.32
2023-05-01T02:56:21.083Z,10.29
2023-05-01T02:57:21.162Z,10.28
2023-05-01T02:58:21.230Z,10.26
2023-05-01T02:59:21.310Z,10.16
2023-05-01T03:00:21.400Z,10.14
2023-05-01T03:01:21.482Z,10.16
2023-05-01T03:02:21.550Z,10.14
2023-05-01T03:03:21.687Z,10.13
2023-05-01T03:04:21.727Z,10.07
2023-05-01T03:05:21.777Z,9.99
2023-05-01T03:06:21.880Z,9.85
2023-05-01T03:07:21.923Z,9.81
2023-05-01T03:08:21.983Z,9.80
2023-05-01T03:09:22.092Z,9.80
2023-05-01T03:10:22.168Z,9.75
2023-05-01T03:11:22.253Z,9.75
2023-05-01T03:12:22.304Z,9.77
2023-05-01T03:13:22.419Z,9.71
2023-05-01T03:14:22.482Z,9.71
2023-05-01T03:15:22.598Z,9.68
2023-05-01T03:16:22.720Z,9.67
2023-05-01T03:17:22.772Z,9.53
2023-05-01T03:18:22.780Z,9.45
2023-05-01T03:19:22.850Z,9.52
2023-05-01T03:20:22.941Z,9.56
2023-05-01T03:21:23.021Z,9.62
2023-05-01T03:22:23.101Z,9.67
2023-05-01T03:23:23.170Z,9.68
2023-05-01T03:24:23.263Z,9.70
2023-05-01T03:25:23.359Z,9.71
2023-05-01T03:26:23.399Z,9.80
2023-05-01T03:27:23.500Z,9.85
2023-05-01T03:28:23.549Z,9.86
2023-05-01T03:29:23.622Z,9.88
2023-05-01T03:30:23.692Z,9.86
2023-05-01T03:31:23.791Z,9.86
2023-05-01T03:32:23.945Z,9.89
2023-05-01T03:33:23.968Z,9.92
2023-05-01T03:34:24.033Z,9.93
2023-05-01T03:35:24.139Z,9.96
2023-05-01T03:36:24.190Z,9.98
2023-05-01T03:37:24.273Z,9.95
2023-05-01T03:38:24.354Z,9.96
2023-05-01T03:39:24.454Z,9.89
2023-05-01T03:40:24.554Z,9.81
2023-05-01T03:41:24.602Z,9.70
2023-05-01T03:42:24.680Z,9.62
2023-05-01T03:43:24.757Z,9.58
2023-05-01T03:44:24.839Z,9.60
2023-05-01T03:45:24.920Z,9.65
2023-05-01T03:46:25.002Z,9.68
2023-05-01T03:47:25.122Z,9.73
2023-05-01T03:48:25.160Z,9.77
2023-05-01T03:49:25.218Z,9.80
2023-05-01T03:50:25.330Z,9.80
2023-05-01T03:51:25.364Z,9.81
2023-05-01T03:52:25.441Z,9.83
2023-05-01T03:53:25.524Z,9.83
2023-05-01T03:54:25.592Z,9.80
2023-05-01T03:55:25.683Z,9.77
2023-05-01T03:56:25.781Z,9.77
2023-05-01T03:57:25.873Z,9.71
2023-05-01T03:58:25.929Z,9.67
2023-05-01T03:59:26.047Z,9.63
2023-05-01T04:00:26.135Z,9.60
2023-05-01T04:01:26.194Z,9.65
2023-05-01T04:02:26.331Z,9.67
2023-05-01T04:03:26.571Z,9.68
2023-05-01T04:04:26.466Z,9.73
2023-05-01T04:05:26.545Z,9.75
2023-05-01T04:06:26.644Z,9.75
2023-05-01T04:07:26.687Z,9.74
2023-05-01T04:08:26.778Z,9.74
2023-05-01T04:09:26.866Z,9.77
2023-05-01T04:10:26.977Z,9.80
2023-05-01T04:11:27.039Z,9.77
2023-05-01T04:12:27.113Z,9.78
2023-05-01T04:13:27.182Z,9.77
2023-05-01T04:14:27.275Z,9.81
2023-05-01T04:15:27.391Z,9.86
2023-05-01T04:16:27.475Z,9.92
2023-05-01T04:17:27.510Z,9.95
2023-05-01T04:18:27.602Z,9.95
2023-05-01T04:19:27.657Z,9.98
2023-05-01T04:20:27.758Z,9.99
2023-05-01T04:21:27.821Z,9.99
2023-05-01T04:22:27.922Z,10.01
2023-05-01T04:23:27.980Z,10.06
2023-05-01T04:24:28.082Z,10.06
2023-05-01T04:25:28.152Z,10.02
2023-05-01T04:26:28.241Z,10.06
2023-05-01T04:27:28.294Z,10.09
2023-05-01T04:28:28.396Z,10.10
2023-05-01T04:29:28.457Z,10.13
2023-05-01T04:30:28.569Z,10.16
2023-05-01T04:31:28.638Z,10.17
2023-05-01T04:32:28.711Z,10.20
2023-05-01T04:33:28.787Z,10.22
2023-05-01T04:34:28.853Z,10.24
2023-05-01T04:35:28.937Z,10.25
2023-05-01T04:36:28.998Z,10.26
2023-05-01T04:37:29.064Z,10.28
2023-05-01T04:38:29.176Z,10.31
2023-05-01T04:39:29.227Z,10.32
2023-05-01T04:40:29.337Z,10.32
2023-05-01T04:41:29.453Z,10.32
2023-05-01T04:42:29.467Z,10.34
2023-05-01T04:43:29.519Z,10.35
2023-05-01T04:44:29.626Z,10.36
2023-05-01T04:45:29.680Z,10.36
2023-05-01T04:46:29.833Z,10.38
2023-05-01T04:47:29.823Z,10.42
2023-05-01T04:48:30.046Z,10.39
2023-05-01T04:49:29.987Z,10.42
2023-05-01T04:50:30.144Z,10.43
2023-05-01T04:51:30.147Z,10.43
2023-05-01T04:52:30.250Z,10.44
2023-05-01T04:53:30.309Z,10.42
2023-05-01T04:54:30.391Z,10.42
2023-05-01T04:55:31.285Z,10.47
2023-05-01T04:56:30.544Z,10.47
2023-05-01T04:57:30.598Z,10.49
2023-05-01T04:58:30.784Z,10.49
2023-05-01T04:59:30.763Z,10.54
2023-05-01T05:00:30.886Z,10.58
2023-05-01T05:01:31.004Z,10.62
2023-05-01T05:02:31.074Z,10.60
2023-05-01T05:03:31.191Z,10.62
2023-05-01T05:04:31.173Z,10.65
2023-05-01T05:05:31.245Z,10.65
2023-05-01T05:06:31.371Z,10.68
2023-05-01T05:07:31.391Z,10.66
2023-05-01T05:08:31.470Z,10.70
2023-05-01T05:09:31.551Z,10.73
2023-05-01T05:10:31.660Z,10.78
2023-05-01T05:11:31.691Z,10.81
2023-05-01T05:12:31.774Z,10.87
2023-05-01T05:13:31.849Z,10.90
2023-05-01T05:14:31.940Z,10.94
2023-05-01T05:15:32.018Z,10.98
2023-05-01T05:16:32.124Z,11.03
2023-05-01T05:17:32.169Z,11.06
2023-05-01T05:18:32.217Z,11.09
2023-05-01T05:19:32.311Z,11.13
2023-05-01T05:20:32.409Z,11.16
2023-05-01T05:21:32.446Z,11.16
2023-05-01T05:22:32.542Z,11.20
2023-05-01T05:23:32.634Z,11.23
2023-05-01T05:24:32.735Z,11.26
2023-05-01T05:25:32.824Z,11.26
2023-05-01T05:26:32.914Z,11.30
2023-05-01T05:27:32.964Z,11.33
2023-05-01T05:28:33.045Z,11.33
2023-05-01T05:29:33.123Z,11.36
2023-05-01T05:30:33.233Z,11.39
2023-05-01T05:31:33.335Z,11.44
2023-05-01T05:32:33.410Z,11.46
2023-05-01T05:33:33.457Z,11.49
2023-05-01T05:34:33.547Z,11.54
2023-05-01T05:35:33.634Z,11.59
2023-05-01T05:36:33.725Z,11.62
2023-05-01T05:37:33.790Z,11.67
2023-05-01T05:38:33.882Z,11.72
2023-05-01T05:39:33.960Z,11.75
2023-05-01T05:40:34.058Z,11.77
2023-05-01T05:41:34.149Z,11.74
2023-05-01T05:42:34.226Z,11.75
2023-05-01T05:43:34.297Z,11.75
2023-05-01T05:44:34.380Z,11.79
2023-05-01T05:45:34.469Z,11.81
2023-05-01T05:46:34.563Z,11.82
2023-05-01T05:47:34.614Z,11.85
2023-05-01T05:48:34.715Z,11.87
2023-05-01T05:49:34.797Z,11.90
2023-05-01T05:50:34.932Z,11.94
2023-05-01T05:51:34.997Z,11.97
2023-05-01T05:52:35.061Z,11.98
2023-05-01T05:53:35.117Z,12.00
2023-05-01T05:54:35.219Z,12.01
2023-05-01T05:55:35.438Z,12.07
2023-05-01T05:56:35.390Z,12.08
2023-05-01T05:57:35.472Z,12.13
2023-05-01T05:58:35.560Z,12.16
2023-05-01T05:59:35.609Z,12.22
2023-05-01T06:00:35.747Z,12.25
2023-05-01T06:01:35.788Z,12.29
2023-05-01T06:02:35.965Z,12.33
2023-05-01T06:03:36.059Z,12.36
2023-05-01T06:04:36.016Z,12.38
2023-05-01T06:05:36.286Z,12.40
2023-05-01T06:06:36.286Z,12.44
2023-05-01T06:07:36.281Z,12.49
2023-05-01T06:08:36.382Z,12.51
2023-05-01T06:09:36.440Z,12.55
2023-05-01T06:10:36.550Z,12.58
2023-05-01T06:11:36.578Z,12.56
2023-05-01T06:12:38.159Z,12.54
2023-05-01T06:13:36.751Z,12.58
2023-05-01T06:14:36.859Z,12.63
2023-05-01T06:15:36.996Z,12.67
2023-05-01T06:16:37.021Z,12.71
2023-05-01T06:17:37.129Z,12.69
2023-05-01T06:18:37.141Z,12.67
2023-05-01T06:19:37.213Z,12.67
2023-05-01T06:20:37.337Z,12.66
2023-05-01T06:21:37.396Z,12.66
2023-05-01T06:22:37.453Z,12.67
2023-05-01T06:23:37.535Z,12.71
2023-05-01T06:24:37.617Z,12.71
2023-05-01T06:25:37.726Z,12.74
2023-05-01T06:26:37.759Z,12.79
2023-05-01T06:27:37.816Z,12.84
2023-05-01T06:28:37.902Z,12.84
2023-05-01T06:29:37.982Z,12.87
2023-05-01T06:30:38.099Z,12.89
2023-05-01T06:31:38.168Z,12.88
2023-05-01T06:32:38.298Z,12.89
2023-05-01T06:33:38.284Z,12.87
2023-05-01T06:34:38.359Z,12.91
2023-05-01T06:35:38.461Z,12.94
2023-05-01T06:36:38.548Z,12.99
2023-05-01T06:37:38.595Z,12.96
2023-05-01T06:38:38.684Z,12.99
2023-05-01T06:39:38.761Z,13.03
2023-05-01T06:40:38.873Z,13.03
2023-05-01T06:41:38.903Z,13.04
2023-05-01T06:42:38.993Z,13.04
2023-05-01T06:43:39.093Z,13.07
2023-05-01T06:44:39.176Z,13.10
2023-05-01T06:45:39.271Z,13.10
2023-05-01T06:46:39.392Z,13.14
2023-05-01T06:47:39.461Z,13.14
2023-05-01T06:48:39.485Z,13.19
2023-05-01T06:49:39.578Z,13.24
2023-05-01T06:50:39.667Z,13.27
2023-05-01T06:51:39.712Z,13.32
2023-05-01T06:52:39.799Z,13.38
2023-05-01T06:53:39.921Z,13.43
2023-05-01T06:54:39.968Z,13.38
2023-05-01T06:55:40.106Z,13.35
2023-05-01T06:56:40.125Z,13.36
2023-05-01T06:57:40.181Z,13.39
2023-05-01T06:58:40.264Z,13.39
2023-05-01T06:59:40.373Z,13.44
2023-05-01T07:00:40.450Z,13.47
2023-05-01T07:01:40.499Z,13.53
2023-05-01T07:02:40.882Z,13.54
2023-05-01T07:03:40.678Z,13.57
2023-05-01T07:04:40.712Z,13.62
2023-05-01T07:05:40.833Z,13.65
2023-05-01T07:06:40.893Z,13.63
2023-05-01T07:07:47.169Z,13.66
2023-05-01T07:08:41.041Z,13.63
2023-05-01T07:09:41.123Z,13.62
2023-05-01T07:10:42.241Z,13.66
2023-05-01T07:11:41.287Z,13.71
2023-05-01T07:12:41.361Z,13.76
2023-05-01T07:13:41.450Z,13.84
2023-05-01T07:14:41.538Z,13.90
2023-05-01T07:15:41.635Z,13.98
2023-05-01T07:16:41.714Z,14.05
2023-05-01T07:17:41.790Z,14.11
2023-05-01T07:18:41.839Z,14.13
2023-05-01T07:19:41.914Z,14.19
2023-05-01T07:20:42.071Z,14.21
2023-05-01T07:21:42.108Z,14.20
2023-05-01T07:22:42.180Z,14.19
2023-05-01T07:23:42.236Z,14.16
2023-05-01T07:24:42.390Z,14.19
2023-05-01T07:25:42.448Z,14.24
2023-05-01T07:26:42.517Z,14.31
2023-05-01T07:27:42.570Z,14.36
2023-05-01T07:28:42.643Z,14.38
2023-05-01T07:29:42.715Z,14.45
2023-05-01T07:30:42.834Z,14.48
2023-05-01T07:31:42.970Z,14.54
2023-05-01T07:32:43.016Z,14.54
2023-05-01T07:33:43.044Z,14.56
2023-05-01T07:34:43.133Z,14.61
2023-05-01T07:35:43.268Z,14.69
2023-05-01T07:36:43.304Z,14.78
2023-05-01T07:37:43.352Z,14.85
2023-05-01T07:38:43.464Z,14.87
2023-05-01T07:39:43.561Z,14.98
2023-05-01T07:40:43.640Z,15.04
2023-05-01T07:41:43.705Z,15.05
2023-05-01T07:42:43.797Z,15.11
2023-05-01T07:43:43.881Z,15.18
2023-05-01T07:44:43.993Z,15.27
2023-05-01T07:45:44.102Z,15.33
2023-05-01T07:46:44.162Z,15.37
2023-05-01T07:47:44.280Z,15.43
2023-05-01T07:48:44.347Z,15.49
2023-05-01T07:49:44.395Z,15.52
2023-05-01T07:50:44.506Z,15.68
2023-05-01T07:51:44.557Z,15.78
2023-05-01T07:52:44.655Z,15.86
2023-05-01T07:53:44.744Z,15.96
2023-05-01T07:54:44.842Z,16.04
2023-05-01T07:55:44.945Z,16.08
2023-05-01T07:56:44.998Z,16.11
2023-05-01T07:57:45.092Z,16.23
2023-05-01T07:58:45.195Z,16.25
2023-05-01T07:59:45.287Z,16.36
2023-05-01T08:00:45.389Z,16.48
2023-05-01T08:01:45.430Z,16.54
2023-05-01T08:02:45.612Z,16.69
2023-05-01T08:03:46.922Z,16.87
2023-05-01T08:04:45.720Z,17.10
2023-05-01T08:05:45.822Z,17.81
2023-05-01T08:06:45.974Z,18.68
2023-05-01T08:07:45.960Z,19.61
2023-05-01T08:08:46.049Z,20.10
2023-05-01T08:09:46.105Z,20.05
2023-05-01T08:10:46.222Z,19.70
2023-05-01T08:11:46.274Z,19.42
2023-05-01T08:12:46.397Z,19.12
2023-05-01T08:13:46.416Z,18.83
2023-05-01T08:14:46.498Z,18.57
2023-05-01T08:15:46.611Z,18.34
2023-05-01T08:16:46.769Z,18.32
2023-05-01T08:17:46.829Z,18.25
2023-05-01T08:18:46.796Z,18.29
2023-05-01T08:19:46.852Z,18.21
2023-05-01T08:20:46.980Z,18.07
2023-05-01T08:21:47.050Z,18.20
2023-05-01T08:22:47.135Z,18.29
2023-05-01T08:23:47.198Z,18.28
2023-05-01T08:24:47.317Z,18.25
2023-05-01T08:25:47.406Z,18.20
2023-05-01T08:26:47.487Z,18.20
2023-05-01T08:27:47.560Z,18.01
2023-05-01T08:28:47.620Z,18.05
2023-05-01T08:29:47.728Z,18.07
2023-05-01T08:30:47.809Z,18.21
2023-05-01T08:31:47.924Z,18.14
2023-05-01T08:32:48.058Z,18.09
2023-05-01T08:33:48.062Z,18.42
2023-05-01T08:34:48.135Z,18.84
2023-05-01T08:35:48.242Z,19.40
2023-05-01T08:36:49.025Z,19.49
2023-05-01T08:37:48.386Z,19.38
2023-05-01T08:38:48.469Z,19.38
2023-05-01T08:39:48.536Z,19.38
2023-05-01T08:40:48.640Z,19.16
2023-05-01T08:41:48.771Z,19.09
2023-05-01T08:42:48.770Z,18.97
2023-05-01T08:43:48.887Z,18.91
2023-05-01T08:44:48.944Z,18.87
2023-05-01T08:45:49.067Z,19.05
2023-05-01T08:46:49.163Z,19.17
2023-05-01T08:47:49.223Z,19.32
2023-05-01T08:48:49.253Z,19.40
2023-05-01T08:49:49.349Z,19.42
2023-05-01T08:50:49.429Z,19.42
2023-05-01T08:51:49.523Z,19.49
2023-05-01T08:52:49.593Z,19.75
2023-05-01T08:53:49.681Z,19.82
2023-05-01T08:54:49.762Z,19.94
2023-05-01T08:55:49.892Z,20.16
2023-05-01T08:56:49.934Z,20.66
2023-05-01T08:57:50.015Z,20.76
2023-05-01T08:58:50.076Z,20.81
2023-05-01T08:59:50.152Z,20.75
2023-05-01T09:00:50.251Z,20.85
2023-05-01T09:01:50.345Z,20.78
2023-05-01T09:02:50.478Z,20.96
2023-05-01T09:03:50.684Z,21.36
2023-05-01T09:04:50.631Z,21.26
2023-05-01T09:05:50.693Z,21.40
2023-05-01T09:06:50.850Z,21.77
2023-05-01T09:07:50.795Z,21.99
2023-05-01T09:08:50.938Z,22.12
2023-05-01T09:09:50.970Z,22.30
2023-05-01T09:10:51.074Z,22.48
2023-05-01T09:11:51.105Z,22.56
2023-05-01T09:12:51.157Z,23.49
2023-05-01T09:13:51.272Z,23.92
2023-05-01T09:14:51.367Z,23.54
2023-05-01T09:15:51.518Z,22.99
2023-05-01T09:16:51.626Z,23.38
2023-05-01T09:17:51.649Z,23.82
2023-05-01T09:18:51.717Z,24.33
2023-05-01T09:19:51.815Z,24.51
2023-05-01T09:20:51.924Z,24.74
2023-05-01T09:21:51.939Z,24.74
2023-05-01T09:22:52.059Z,25.09
2023-05-01T09:23:52.075Z,25.48
2023-05-01T09:24:52.163Z,25.12
2023-05-01T09:25:52.293Z,24.52
2023-05-01T09:26:52.319Z,23.75
2023-05-01T09:27:52.411Z,22.72
2023-05-01T09:28:52.498Z,22.36
2023-05-01T09:29:52.594Z,22.36
2023-05-01T09:30:52.700Z,22.38
2023-05-01T09:31:52.986Z,21.71
2023-05-01T09:32:52.879Z,21.42
2023-05-01T09:33:52.957Z,21.36
2023-05-01T09:34:53.044Z,20.97
2023-05-01T09:35:53.199Z,20.69
2023-05-01T09:36:53.206Z,20.34
2023-05-01T09:37:53.306Z,20.41
2023-05-01T09:38:53.395Z,20.26
2023-05-01T09:39:53.492Z,20.30
2023-05-01T09:40:53.584Z,20.26
2023-05-01T09:41:53.652Z,20.25
2023-05-01T09:42:53.700Z,20.34
2023-05-01T09:43:53.794Z,20.48
2023-05-01T09:44:53.842Z,20.63
2023-05-01T09:45:54.017Z,20.64
2023-05-01T09:46:54.008Z,20.56
2023-05-01T09:47:54.171Z,20.53
2023-05-01T09:48:54.135Z,20.57
2023-05-01T09:49:54.466Z,20.51
2023-05-01T09:50:54.336Z,20.44
2023-05-01T09:51:54.409Z,20.44
2023-05-01T09:52:54.460Z,20.44
2023-05-01T09:53:54.539Z,20.53
2023-05-01T09:54:54.592Z,20.46
2023-05-01T09:55:54.717Z,20.48
2023-05-01T09:56:54.779Z,20.50
2023-05-01T09:57:54.918Z,20.53
2023-05-01T09:58:54.998Z,20.48
2023-05-01T09:59:55.204Z,20.44
2023-05-01T10:00:55.184Z,20.25
2023-05-01T10:01:55.311Z,20.13
2023-05-01T10:02:55.590Z,20.08
2023-05-01T10:03:55.469Z,20.07
2023-05-01T10:04:55.438Z,20.04
2023-05-01T10:05:55.518Z,20.00
2023-05-01T10:06:55.727Z,20.02
2023-05-01T10:07:55.663Z,20.08
2023-05-01T10:08:55.716Z,20.20
2023-05-01T10:09:57.550Z,20.30
2023-05-01T10:10:55.903Z,20.40
2023-05-01T10:11:55.998Z,20.42
2023-05-01T10:12:56.042Z,20.57
2023-05-01T10:13:56.125Z,20.68
2023-05-01T10:14:56.195Z,20.64
2023-05-01T10:15:56.295Z,20.54
2023-05-01T10:16:56.396Z,20.44
2023-05-01T10:17:56.454Z,20.23
2023-05-01T10:18:56.492Z,20.07
2023-05-01T10:19:56.892Z,19.95
2023-05-01T10:20:56.729Z,19.89
2023-05-01T10:21:56.754Z,19.80
2023-05-01T10:22:56.821Z,19.79
2023-05-01T10:23:56.887Z,19.70
2023-05-01T10:24:56.982Z,19.50
2023-05-01T10:25:57.093Z,19.31
2023-05-01T10:26:57.169Z,19.23
2023-05-01T10:27:57.215Z,19.15
2023-05-01T10:28:57.283Z,18.99
2023-05-01T10:29:57.663Z,18.93
2023-05-01T10:30:57.507Z,18.87
2023-05-01T10:31:57.603Z,18.76
2023-05-01T10:32:57.714Z,18.64
2023-05-01T10:33:57.700Z,18.62
2023-05-01T10:34:58.028Z,18.65
2023-05-01T10:35:57.911Z,18.76
2023-05-01T10:36:57.948Z,18.76
2023-05-01T10:37:58.039Z,18.76
2023-05-01T10:38:58.103Z,18.75
2023-05-01T10:39:58.196Z,18.76
2023-05-01T10:40:58.284Z,18.82
2023-05-01T10:41:58.413Z,18.86
2023-05-01T10:42:58.428Z,18.87
2023-05-01T10:43:58.507Z,18.89
2023-05-01T10:44:58.767Z,18.87
2023-05-01T10:45:58.727Z,18.83
2023-05-01T10:46:58.797Z,18.79
2023-05-01T10:47:58.900Z,18.84
2023-05-01T10:48:58.932Z,18.87
2023-05-01T10:49:59.002Z,18.87
2023-05-01T10:50:59.104Z,18.86
2023-05-01T10:51:59.197Z,18.83
2023-05-01T10:52:59.286Z,18.84
2023-05-01T10:53:59.354Z,18.82
2023-05-01T10:54:59.429Z,18.79
2023-05-01T10:55:59.544Z,18.79
2023-05-01T10:56:59.592Z,18.79
2023-05-01T10:57:59.660Z,18.76
2023-05-01T10:58:59.742Z,18.75
2023-05-01T10:59:59.840Z,18.69
2023-05-01T11:00:59.901Z,18.64
2023-05-01T11:02:00.092Z,18.65
2023-05-01T11:03:00.167Z,18.69
2023-05-01T11:04:00.150Z,18.74
2023-05-01T11:05:00.513Z,18.75
2023-05-01T11:06:01.058Z,18.75
2023-05-01T11:07:00.425Z,18.75
2023-05-01T11:08:00.495Z,18.74
2023-05-01T11:09:00.576Z,18.72
2023-05-01T11:10:00.638Z,18.66
2023-05-01T11:11:00.777Z,18.65
2023-05-01T11:12:00.825Z,18.56
2023-05-01T11:13:00.897Z,18.51
2023-05-01T11:14:01.010Z,18.54
2023-05-01T11:15:01.083Z,18.59
2023-05-01T11:16:01.192Z,18.60
2023-05-01T11:17:01.219Z,18.59
2023-05-01T11:18:01.321Z,18.62
2023-05-01T11:19:01.351Z,18.66
2023-05-01T11:20:01.444Z,18.68
2023-05-01T11:21:01.557Z,18.75
2023-05-01T11:22:01.616Z,18.84
2023-05-01T11:23:01.682Z,18.87
2023-05-01T11:24:01.774Z,18.86
2023-05-01T11:25:01.840Z,18.90
2023-05-01T11:26:01.947Z,18.99
2023-05-01T11:27:02.000Z,19.13
2023-05-01T11:28:02.174Z,19.25
2023-05-01T11:29:02.177Z,19.39
2023-05-01T11:30:02.243Z,19.49
2023-05-01T11:31:02.338Z,19.60
2023-05-01T11:32:02.496Z,19.71
2023-05-01T11:33:02.520Z,19.79
2023-05-01T11:34:02.599Z,19.80
2023-05-01T11:35:02.658Z,19.85
2023-05-01T11:36:02.787Z,19.92
2023-05-01T11:37:02.842Z,20.02
2023-05-01T11:38:02.918Z,20.08
2023-05-01T11:39:02.982Z,20.13
2023-05-01T11:40:03.086Z,20.12
2023-05-01T11:41:03.192Z,20.12
2023-05-01T11:42:03.251Z,20.19
2023-05-01T11:43:03.310Z,20.34
2023-05-01T11:44:03.387Z,20.48
2023-05-01T11:45:03.459Z,20.66
2023-05-01T11:46:03.831Z,20.83
2023-05-01T11:47:03.591Z,21.01
2023-05-01T11:48:04.865Z,21.05
2023-05-01T11:49:03.748Z,21.15
2023-05-01T11:50:03.828Z,21.13
2023-05-01T11:51:03.905Z,20.98
2023-05-01T11:52:03.980Z,20.81
2023-05-01T11:53:04.080Z,20.72
2023-05-01T11:54:04.112Z,20.66
2023-05-01T11:55:04.393Z,20.63
2023-05-01T11:56:10.778Z,20.75
2023-05-01T11:57:04.339Z,20.81
2023-05-01T11:58:04.400Z,20.73
2023-05-01T11:59:04.494Z,20.73
2023-05-01T12:00:04.576Z,20.76
2023-05-01T12:01:04.655Z,20.82
2023-05-01T12:02:04.739Z,20.93
2023-05-01T12:03:04.878Z,20.90
2023-05-01T12:04:04.978Z,20.98
2023-05-01T12:05:05.119Z,21.00
2023-05-01T12:06:05.093Z,21.06
2023-05-01T12:07:05.140Z,21.06
2023-05-01T12:08:05.224Z,21.12
2023-05-01T12:09:05.287Z,21.15
2023-05-01T12:10:05.364Z,21.19
2023-05-01T12:11:05.452Z,21.22
2023-05-01T12:12:05.509Z,21.18
2023-05-01T12:13:05.589Z,21.12
2023-05-01T12:14:05.713Z,21.05
2023-05-01T12:15:05.747Z,21.03
2023-05-01T12:16:05.883Z,20.96
2023-05-01T12:17:05.968Z,20.94
2023-05-01T12:18:06.100Z,20.81
2023-05-01T12:19:06.101Z,20.69
2023-05-01T12:20:06.210Z,20.53
2023-05-01T12:21:06.297Z,20.44
2023-05-01T12:22:06.362Z,20.40
2023-05-01T12:23:06.428Z,20.34
2023-05-01T12:24:06.494Z,20.40
2023-05-01T12:25:06.562Z,20.51
2023-05-01T12:26:06.673Z,20.60
2023-05-01T12:27:06.730Z,20.68
2023-05-01T12:28:06.811Z,20.69
2023-05-01T12:29:06.882Z,20.73
2023-05-01T12:30:06.997Z,20.73
2023-05-01T12:31:07.071Z,20.79
2023-05-01T12:32:07.180Z,20.87
2023-05-01T12:33:07.224Z,20.96
2023-05-01T12:34:07.297Z,20.98
2023-05-01T12:35:07.362Z,21.03
2023-05-01T12:36:07.505Z,21.06
2023-05-01T12:37:07.557Z,21.08
2023-05-01T12:38:07.637Z,21.11
2023-05-01T12:39:07.711Z,21.12
2023-05-01T12:40:07.831Z,21.08
2023-05-01T12:41:07.913Z,21.09
2023-05-01T12:42:07.959Z,21.09
2023-05-01T12:43:08.070Z,21.05
2023-05-01T12:44:08.126Z,21.01
2023-05-01T12:45:08.234Z,20.96
2023-05-01T12:46:08.323Z,20.94
2023-05-01T12:47:08.379Z,20.96
2023-05-01T12:48:08.481Z,21.03
2023-05-01T12:49:08.525Z,21.06
2023-05-01T12:50:08.620Z,21.03
2023-05-01T12:51:08.725Z,21.03
2023-05-01T12:52:08.818Z,21.05
2023-05-01T12:53:08.868Z,21.11
2023-05-01T12:54:08.926Z,21.16
2023-05-01T12:55:09.037Z,21.21
2023-05-01T12:56:09.118Z,21.24